sensor_id;sensor_type;location;lat;lon;timestamp;pressure;altitude;pressure_sealevel;temperature;humidity
48848;BME280;36611;51.638;5.784;2023-02-02T00:02:00;101990.97;;;11.94;57.21
48848;BME280;36611;51.638;5.784;2023-02-02T00:04:32;101999.91;;;11.95;57.05
48848;BME280;36611;51.638;5.784;2023-02-02T00:07:00;101997.13;;;11.96;57.33
48848;BME280;36611;51.638;5.784;2023-02-02T00:09:29;101997.13;;;11.96;57.36
48848;BME280;36611;51.638;5.784;2023-02-02T00:11:57;101995.31;;;11.97;57.43
48848;BME280;36611;51.638;5.784;2023-02-02T00:14:24;101993.47;;;11.97;57.42
48848;BME280;36611;51.638;5.784;2023-02-02T00:16:54;101997.91;;;11.98;57.43
48848;BME280;36611;51.638;5.784;2023-02-02T00:19:25;101995.13;;;12.00;57.49
48848;BME280;36611;51.638;5.784;2023-02-02T00:21:53;101987.91;;;12.00;57.40
48848;BME280;36611;51.638;5.784;2023-02-02T00:24:20;101993.28;;;12.00;57.34
48848;BME280;36611;51.638;5.784;2023-02-02T00:26:51;102001.28;;;12.02;57.16
48848;BME280;36611;51.638;5.784;2023-02-02T00:29:22;101997.63;;;12.03;57.18
48848;BME280;36611;51.638;5.784;2023-02-02T00:31:49;101993.13;;;12.03;57.16
48848;BME280;36611;51.638;5.784;2023-02-02T00:34:16;101997.53;;;12.04;57.15
48848;BME280;36611;51.638;5.784;2023-02-02T00:36:46;101996.75;;;12.02;57.48
48848;BME280;36611;51.638;5.784;2023-02-02T00:39:21;102003.88;;;12.03;57.25
48848;BME280;36611;51.638;5.784;2023-02-02T00:41:48;102006.50;;;12.05;57.52
48848;BME280;36611;51.638;5.784;2023-02-02T00:44:14;102010.03;;;12.05;57.19
48848;BME280;36611;51.638;5.784;2023-02-02T00:46:59;102009.28;;;12.03;57.35
48848;BME280;36611;51.638;5.784;2023-02-02T00:49:26;102012.16;;;12.00;57.45
48848;BME280;36611;51.638;5.784;2023-02-02T00:51:52;102005.03;;;11.99;57.30
48848;BME280;36611;51.638;5.784;2023-02-02T00:54:19;102008.66;;;11.98;57.43
48848;BME280;36611;51.638;5.784;2023-02-02T00:56:46;102005.13;;;11.98;57.42
48848;BME280;36611;51.638;5.784;2023-02-02T00:59:12;102005.97;;;11.98;57.53
48848;BME280;36611;51.638;5.784;2023-02-02T01:01:39;101996.94;;;11.99;57.63
48848;BME280;36611;51.638;5.784;2023-02-02T01:04:06;102005.03;;;11.99;57.80
48848;BME280;36611;51.638;5.784;2023-02-02T01:06:33;102001.47;;;11.99;57.78
48848;BME280;36611;51.638;5.784;2023-02-02T01:09:00;101998.78;;;11.99;57.52
48848;BME280;36611;51.638;5.784;2023-02-02T01:11:27;102000.59;;;11.98;57.81
48848;BME280;36611;51.638;5.784;2023-02-02T01:13:53;101994.34;;;11.98;57.69
48848;BME280;36611;51.638;5.784;2023-02-02T01:16:20;101990.78;;;11.97;57.84
48848;BME280;36611;51.638;5.784;2023-02-02T01:18:49;101999.72;;;11.98;57.73
48848;BME280;36611;51.638;5.784;2023-02-02T01:21:16;101991.66;;;11.98;57.68
48848;BME280;36611;51.638;5.784;2023-02-02T01:23:42;101994.34;;;11.98;57.86
48848;BME280;36611;51.638;5.784;2023-02-02T01:26:10;102008.66;;;11.98;57.79
48848;BME280;36611;51.638;5.784;2023-02-02T01:28:38;102000.69;;;11.97;57.47
48848;BME280;36611;51.638;5.784;2023-02-02T01:31:16;101998.84;;;11.97;57.60
48848;BME280;36611;51.638;5.784;2023-02-02T01:33:44;101997.03;;;11.98;57.64
48848;BME280;36611;51.638;5.784;2023-02-02T01:36:14;102004.16;;;11.99;57.56
48848;BME280;36611;51.638;5.784;2023-02-02T01:38:42;102010.41;;;11.99;57.85
48848;BME280;36611;51.638;5.784;2023-02-02T01:41:13;102002.34;;;11.99;57.56
48848;BME280;36611;51.638;5.784;2023-02-02T01:46:10;102009.44;;;12.00;57.87
48848;BME280;36611;51.638;5.784;2023-02-02T01:48:39;102008.50;;;12.01;57.57
48848;BME280;36611;51.638;5.784;2023-02-02T01:51:10;101999.63;;;11.99;57.85
48848;BME280;36611;51.638;5.784;2023-02-02T01:53:37;102002.34;;;11.99;58.00
48848;BME280;36611;51.638;5.784;2023-02-02T01:56:06;101995.22;;;11.98;57.53
48848;BME280;36611;51.638;5.784;2023-02-02T01:58:36;102003.28;;;11.98;57.68
48848;BME280;36611;51.638;5.784;2023-02-02T02:01:04;102002.34;;;11.99;57.78
48848;BME280;36611;51.638;5.784;2023-02-02T02:03:32;102005.97;;;11.98;57.79
48848;BME280;36611;51.638;5.784;2023-02-02T02:06:03;102009.53;;;11.99;57.81
48848;BME280;36611;51.638;5.784;2023-02-02T02:08:38;102007.72;;;11.99;57.60
48848;BME280;36611;51.638;5.784;2023-02-02T02:11:06;101998.84;;;11.97;57.46
48848;BME280;36611;51.638;5.784;2023-02-02T02:13:36;102000.59;;;11.98;57.35
48848;BME280;36611;51.638;5.784;2023-02-02T02:16:39;101996.06;;;11.99;57.81
48848;BME280;36611;51.638;5.784;2023-02-02T02:37:02;102002.69;;;11.93;57.77
48848;BME280;36611;51.638;5.784;2023-02-02T02:39:41;101997.31;;;11.93;57.64
48848;BME280;36611;51.638;5.784;2023-02-02T02:42:16;102004.44;;;11.94;57.50
48848;BME280;36611;51.638;5.784;2023-02-02T02:44:47;102005.28;;;11.95;57.61
48848;BME280;36611;51.638;5.784;2023-02-02T02:47:16;102004.44;;;11.94;57.60
48848;BME280;36611;51.638;5.784;2023-02-02T02:49:45;102007.97;;;11.95;57.47
48848;BME280;36611;51.638;5.784;2023-02-02T02:52:13;102007.03;;;11.96;57.77
48848;BME280;36611;51.638;5.784;2023-02-02T02:54:44;102008.94;;;11.94;57.53
48848;BME280;36611;51.638;5.784;2023-02-02T03:00:32;102013.47;;;11.93;57.77
48848;BME280;36611;51.638;5.784;2023-02-02T03:03:18;102012.59;;;11.93;57.67
48848;BME280;36611;51.638;5.784;2023-02-02T03:08:40;102005.56;;;11.90;57.77
48848;BME280;36611;51.638;5.784;2023-02-02T03:11:10;102008.25;;;11.90;57.79
48848;BME280;36611;51.638;5.784;2023-02-02T03:13:39;102003.81;;;11.89;57.69
48848;BME280;36611;51.638;5.784;2023-02-02T03:16:08;101994.84;;;11.89;57.68
48848;BME280;36611;51.638;5.784;2023-02-02T03:18:35;102002.06;;;11.88;57.89
48848;BME280;36611;51.638;5.784;2023-02-02T03:21:02;102010.13;;;11.88;57.77
48848;BME280;36611;51.638;5.784;2023-02-02T03:23:29;102000.41;;;11.86;57.53
48848;BME280;36611;51.638;5.784;2023-02-02T03:25:55;101996.06;;;11.83;57.98
48848;BME280;36611;51.638;5.784;2023-02-02T03:28:23;101999.63;;;11.84;57.93
48848;BME280;36611;51.638;5.784;2023-02-02T03:30:50;101990.59;;;11.85;57.56
48848;BME280;36611;51.638;5.784;2023-02-02T03:33:19;101987.03;;;11.84;57.71
48848;BME280;36611;51.638;5.784;2023-02-02T03:35:46;101994.25;;;11.84;57.86
48848;BME280;36611;51.638;5.784;2023-02-02T03:38:12;101992.50;;;11.83;57.77
48848;BME280;36611;51.638;5.784;2023-02-02T03:40:39;101994.44;;;11.81;57.68
48848;BME280;36611;51.638;5.784;2023-02-02T03:43:06;101998.00;;;11.81;57.60
48848;BME280;36611;51.638;5.784;2023-02-02T03:45:33;101996.16;;;11.82;57.60
48848;BME280;36611;51.638;5.784;2023-02-02T03:48:06;101999.81;;;11.81;57.87
48848;BME280;36611;51.638;5.784;2023-02-02T03:50:33;102004.31;;;11.80;57.74
48848;BME280;36611;51.638;5.784;2023-02-02T03:52:59;102004.31;;;11.80;57.69
48848;BME280;36611;51.638;5.784;2023-02-02T03:55:26;102010.66;;;11.79;57.66
48848;BME280;36611;51.638;5.784;2023-02-02T03:57:52;102029.50;;;11.79;57.94
48848;BME280;36611;51.638;5.784;2023-02-02T04:00:19;102034.88;;;11.79;57.71
48848;BME280;36611;51.638;5.784;2023-02-02T04:02:46;102036.72;;;11.78;58.00
48848;BME280;36611;51.638;5.784;2023-02-02T04:05:13;102037.59;;;11.79;57.76
48848;BME280;36611;51.638;5.784;2023-02-02T04:07:40;102042.09;;;11.78;57.92
48848;BME280;36611;51.638;5.784;2023-02-02T04:10:06;102035.66;;;11.81;58.03
48848;BME280;36611;51.638;5.784;2023-02-02T04:12:33;102040.09;;;11.82;58.01
48848;BME280;36611;51.638;5.784;2023-02-02T04:15:00;102044.53;;;11.83;58.09
48848;BME280;36611;51.638;5.784;2023-02-02T04:17:26;102042.78;;;11.82;58.09
48848;BME280;36611;51.638;5.784;2023-02-02T04:19:53;102049.03;;;11.83;58.14
48848;BME280;36611;51.638;5.784;2023-02-02T04:22:24;102039.13;;;11.83;58.08
48848;BME280;36611;51.638;5.784;2023-02-02T04:24:51;102045.31;;;11.85;57.98
48848;BME280;36611;51.638;5.784;2023-02-02T04:27:18;102030.97;;;11.85;57.86
48848;BME280;36611;51.638;5.784;2023-02-02T04:29:44;102033.56;;;11.86;58.10
48848;BME280;36611;51.638;5.784;2023-02-02T04:32:13;102039.84;;;11.87;57.99
48848;BME280;36611;51.638;5.784;2023-02-02T04:34:41;102038.81;;;11.89;58.09
48848;BME280;36611;51.638;5.784;2023-02-02T04:37:07;102037.91;;;11.89;58.15
48848;BME280;36611;51.638;5.784;2023-02-02T04:39:34;102028.06;;;11.89;58.09
48848;BME280;36611;51.638;5.784;2023-02-02T04:42:00;102032.47;;;11.90;58.06
48848;BME280;36611;51.638;5.784;2023-02-02T04:44:28;102034.13;;;11.93;58.05
48848;BME280;36611;51.638;5.784;2023-02-02T04:46:54;102036.03;;;11.91;58.02
48848;BME280;36611;51.638;5.784;2023-02-02T04:49:21;102034.22;;;11.91;58.24
48848;BME280;36611;51.638;5.784;2023-02-02T04:51:47;102027.88;;;11.92;58.16
48848;BME280;36611;51.638;5.784;2023-02-02T04:54:15;102027.88;;;11.92;57.98
48848;BME280;36611;51.638;5.784;2023-02-02T04:56:42;102026.91;;;11.93;58.16
48848;BME280;36611;51.638;5.784;2023-02-02T04:59:09;102024.22;;;11.93;58.09
48848;BME280;36611;51.638;5.784;2023-02-02T05:01:35;102029.44;;;11.96;57.71
48848;BME280;36611;51.638;5.784;2023-02-02T05:04:02;102038.47;;;11.95;57.93
48848;BME280;36611;51.638;5.784;2023-02-02T05:06:28;102030.38;;;11.95;58.03
48848;BME280;36611;51.638;5.784;2023-02-02T05:08:55;102042.97;;;11.95;57.87
48848;BME280;36611;51.638;5.784;2023-02-02T05:11:22;102036.66;;;11.96;57.98
48848;BME280;36611;51.638;5.784;2023-02-02T05:13:51;102034.81;;;11.96;57.91
48848;BME280;36611;51.638;5.784;2023-02-02T05:16:19;102030.31;;;11.97;57.82
48848;BME280;36611;51.638;5.784;2023-02-02T05:18:54;102029.44;;;11.96;57.82
48848;BME280;36611;51.638;5.784;2023-02-02T05:21:22;102031.16;;;11.97;58.00
48848;BME280;36611;51.638;5.784;2023-02-02T05:23:49;102021.34;;;11.96;57.83
48848;BME280;36611;51.638;5.784;2023-02-02T05:26:24;102027.69;;;11.95;57.99
48848;BME280;36611;51.638;5.784;2023-02-02T05:28:51;102026.84;;;11.95;58.05
48848;BME280;36611;51.638;5.784;2023-02-02T05:31:19;102031.34;;;11.94;57.98
48848;BME280;36611;51.638;5.784;2023-02-02T05:33:46;102045.66;;;11.95;57.79
48848;BME280;36611;51.638;5.784;2023-02-02T05:36:12;102048.28;;;11.96;57.92
48848;BME280;36611;51.638;5.784;2023-02-02T05:38:41;102048.38;;;11.95;57.85
48848;BME280;36611;51.638;5.784;2023-02-02T05:41:07;102064.44;;;11.96;58.15
48848;BME280;36611;51.638;5.784;2023-02-02T05:43:34;102058.97;;;11.98;57.82
48848;BME280;36611;51.638;5.784;2023-02-02T05:46:01;102058.09;;;11.97;57.83
48848;BME280;36611;51.638;5.784;2023-02-02T05:48:27;102058.09;;;11.97;58.05
48848;BME280;36611;51.638;5.784;2023-02-02T05:53:33;102055.31;;;11.99;58.22
48848;BME280;36611;51.638;5.784;2023-02-02T05:55:59;102055.31;;;11.99;57.93
48848;BME280;36611;51.638;5.784;2023-02-02T05:58:26;102054.44;;;11.98;58.09
48848;BME280;36611;51.638;5.784;2023-02-02T06:00:53;102051.75;;;11.98;58.18
48848;BME280;36611;51.638;5.784;2023-02-02T06:03:22;102054.44;;;11.98;58.11
48848;BME280;36611;51.638;5.784;2023-02-02T06:05:49;102062.50;;;11.98;58.10
48848;BME280;36611;51.638;5.784;2023-02-02T06:08:15;102057.13;;;11.98;58.28
48848;BME280;36611;51.638;5.784;2023-02-02T06:10:42;102051.66;;;12.00;57.84
48848;BME280;36611;51.638;5.784;2023-02-02T06:13:09;102050.69;;;12.01;58.14
48848;BME280;36611;51.638;5.784;2023-02-02T06:15:36;102058.78;;;12.01;57.90
48848;BME280;36611;51.638;5.784;2023-02-02T06:18:02;102061.47;;;12.01;58.10
48848;BME280;36611;51.638;5.784;2023-02-02T06:20:31;102058.00;;;11.99;58.13
48848;BME280;36611;51.638;5.784;2023-02-02T06:22:58;102060.59;;;12.00;58.03
48848;BME280;36611;51.638;5.784;2023-02-02T06:25:25;102057.91;;;12.00;58.14
48848;BME280;36611;51.638;5.784;2023-02-02T06:27:59;102064.16;;;12.01;58.17
48848;BME280;36611;51.638;5.784;2023-02-02T06:30:26;102065.91;;;12.02;58.22
48848;BME280;36611;51.638;5.784;2023-02-02T06:32:53;102071.19;;;12.03;57.98
48848;BME280;36611;51.638;5.784;2023-02-02T06:35:20;102063.13;;;12.03;58.16
48848;BME280;36611;51.638;5.784;2023-02-02T06:37:46;102064.06;;;12.02;58.16
48848;BME280;36611;51.638;5.784;2023-02-02T06:40:13;102060.50;;;12.02;58.09
48848;BME280;36611;51.638;5.784;2023-02-02T06:42:40;102073.88;;;12.03;58.26
48848;BME280;36611;51.638;5.784;2023-02-02T06:45:07;102069.38;;;12.04;58.14
48848;BME280;36611;51.638;5.784;2023-02-02T06:47:37;102076.59;;;12.03;57.99
48848;BME280;36611;51.638;5.784;2023-02-02T06:50:03;102087.25;;;12.05;58.31
48848;BME280;36611;51.638;5.784;2023-02-02T06:52:30;102095.34;;;12.05;57.91
48848;BME280;36611;51.638;5.784;2023-02-02T06:54:57;102093.59;;;12.04;58.00
48848;BME280;36611;51.638;5.784;2023-02-02T06:57:23;102098.03;;;12.05;58.20
48848;BME280;36611;51.638;5.784;2023-02-02T06:59:50;102097.94;;;12.06;57.89
48848;BME280;36611;51.638;5.784;2023-02-02T07:02:17;102086.31;;;12.06;58.03
48848;BME280;36611;51.638;5.784;2023-02-02T07:04:44;102093.44;;;12.07;57.88
48848;BME280;36611;51.638;5.784;2023-02-02T07:07:10;102088.13;;;12.05;58.00
48848;BME280;36611;51.638;5.784;2023-02-02T07:09:37;102091.69;;;12.06;57.89
48848;BME280;36611;51.638;5.784;2023-02-02T07:12:04;102099.00;;;12.04;58.10
48848;BME280;36611;51.638;5.784;2023-02-02T07:14:30;102099.94;;;12.03;57.98
48848;BME280;36611;51.638;5.784;2023-02-02T07:16:57;102104.38;;;12.04;58.14
48848;BME280;36611;51.638;5.784;2023-02-02T07:19:24;102106.28;;;12.02;58.25
48848;BME280;36611;51.638;5.784;2023-02-02T07:21:50;102106.38;;;12.00;58.29
48848;BME280;36611;51.638;5.784;2023-02-02T07:24:17;102107.34;;;11.99;58.21
48848;BME280;36611;51.638;5.784;2023-02-02T07:26:43;102110.03;;;11.99;57.93
48848;BME280;36611;51.638;5.784;2023-02-02T07:29:12;102110.03;;;11.99;58.37
48848;BME280;36611;51.638;5.784;2023-02-02T07:31:41;102094.81;;;11.98;58.38
48848;BME280;36611;51.638;5.784;2023-02-02T07:34:08;102103.00;;;11.97;58.25
48848;BME280;36611;51.638;5.784;2023-02-02T07:36:35;102109.34;;;11.96;58.64
48848;BME280;36611;51.638;5.784;2023-02-02T07:39:03;102105.84;;;11.94;58.52
48848;BME280;36611;51.638;5.784;2023-02-02T07:41:30;102109.50;;;11.93;58.41
48848;BME280;36611;51.638;5.784;2023-02-02T07:43:59;102109.59;;;11.91;58.49
48848;BME280;36611;51.638;5.784;2023-02-02T07:46:25;102108.81;;;11.89;58.38
48848;BME280;36611;51.638;5.784;2023-02-02T07:48:53;102112.41;;;11.88;58.74
48848;BME280;36611;51.638;5.784;2023-02-02T07:51:24;102130.34;;;11.89;58.56
48848;BME280;36611;51.638;5.784;2023-02-02T07:53:53;102125.97;;;11.87;58.41
48848;BME280;36611;51.638;5.784;2023-02-02T07:56:22;102134.81;;;11.89;58.68
48848;BME280;36611;51.638;5.784;2023-02-02T07:58:51;102128.56;;;11.88;58.67
48848;BME280;36611;51.638;5.784;2023-02-02T08:01:18;102139.50;;;11.85;58.69
48848;BME280;36611;51.638;5.784;2023-02-02T08:03:49;102138.66;;;11.85;58.87
48848;BME280;36611;51.638;5.784;2023-02-02T08:06:27;102144.13;;;11.83;58.84
48848;BME280;36611;51.638;5.784;2023-02-02T08:08:55;102147.75;;;11.82;58.66
48848;BME280;36611;51.638;5.784;2023-02-02T08:11:22;102145.94;;;11.83;58.96
48848;BME280;36611;51.638;5.784;2023-02-02T08:13:57;102149.59;;;11.82;59.19
48848;BME280;36611;51.638;5.784;2023-02-02T08:16:25;102148.53;;;11.84;58.88
48848;BME280;36611;51.638;5.784;2023-02-02T08:18:52;102148.53;;;11.84;58.85
48848;BME280;36611;51.638;5.784;2023-02-02T08:21:20;102144.97;;;11.84;59.10
48848;BME280;36611;51.638;5.784;2023-02-02T08:23:47;102151.16;;;11.86;59.16
48848;BME280;36611;51.638;5.784;2023-02-02T08:26:25;102153.84;;;11.86;59.33
48848;BME280;36611;51.638;5.784;2023-02-02T08:28:58;102160.88;;;11.88;59.38
48848;BME280;36611;51.638;5.784;2023-02-02T08:31:29;102156.38;;;11.89;59.34
48848;BME280;36611;51.638;5.784;2023-02-02T08:33:56;102165.25;;;11.91;59.30
48848;BME280;36611;51.638;5.784;2023-02-02T08:36:27;102167.88;;;11.92;59.00
48848;BME280;36611;51.638;5.784;2023-02-02T08:38:54;102165.94;;;11.94;59.12
48848;BME280;36611;51.638;5.784;2023-02-02T08:41:22;102172.22;;;11.95;59.16
48848;BME280;36611;51.638;5.784;2023-02-02T08:43:50;102187.41;;;11.96;59.11
48848;BME280;36611;51.638;5.784;2023-02-02T08:46:18;102193.66;;;11.96;58.96
48848;BME280;36611;51.638;5.784;2023-02-02T08:48:47;102191.75;;;11.98;59.08
48848;BME280;36611;51.638;5.784;2023-02-02T08:51:16;102198.88;;;11.99;59.03
48848;BME280;36611;51.638;5.784;2023-02-02T08:53:44;102206.00;;;12.00;59.14
48848;BME280;36611;51.638;5.784;2023-02-02T08:58:38;102206.59;;;12.05;59.22
48848;BME280;36611;51.638;5.784;2023-02-02T09:01:15;102209.22;;;12.07;58.95
48848;BME280;36611;51.638;5.784;2023-02-02T09:03:42;102218.25;;;12.06;58.93
48848;BME280;36611;51.638;5.784;2023-02-02T09:06:11;102231.63;;;12.07;58.84
48848;BME280;36611;51.638;5.784;2023-02-02T09:08:38;102213.56;;;12.09;58.93
48848;BME280;36611;51.638;5.784;2023-02-02T09:11:14;102235.09;;;12.09;58.96
48848;BME280;36611;51.638;5.784;2023-02-02T09:13:43;102236.84;;;12.11;58.84
48848;BME280;36611;51.638;5.784;2023-02-02T09:16:17;102240.31;;;12.13;59.07
48848;BME280;36611;51.638;5.784;2023-02-02T09:18:44;102242.16;;;12.12;58.86
48848;BME280;36611;51.638;5.784;2023-02-02T09:21:15;102243.88;;;12.13;58.77
48848;BME280;36611;51.638;5.784;2023-02-02T09:23:43;102249.19;;;12.15;58.98
48848;BME280;36611;51.638;5.784;2023-02-02T09:26:15;102246.31;;;12.18;59.03
48848;BME280;36611;51.638;5.784;2023-02-02T09:28:45;102256.06;;;12.20;58.76
48848;BME280;36611;51.638;5.784;2023-02-02T09:31:13;102263.19;;;12.21;59.00
48848;BME280;36611;51.638;5.784;2023-02-02T09:33:40;102259.44;;;12.24;58.77
48848;BME280;36611;51.638;5.784;2023-02-02T09:36:13;102261.19;;;12.25;58.84
48848;BME280;36611;51.638;5.784;2023-02-02T09:38:41;102264.66;;;12.27;58.65
48848;BME280;36611;51.638;5.784;2023-02-02T09:44:40;102282.22;;;12.34;58.50
48848;BME280;36611;51.638;5.784;2023-02-02T09:50:00;102286.31;;;12.41;58.60
48848;BME280;36611;51.638;5.784;2023-02-02T09:52:36;102277.28;;;12.42;58.45
48848;BME280;36611;51.638;5.784;2023-02-02T09:55:39;102280.66;;;12.46;58.57
48848;BME280;36611;51.638;5.784;2023-02-02T10:03:36;102280.84;;;12.58;58.61
48848;BME280;36611;51.638;5.784;2023-02-02T10:09:00;102293.06;;;12.65;58.55
48848;BME280;36611;51.638;5.784;2023-02-02T10:14:34;102293.66;;;12.70;58.56
48848;BME280;36611;51.638;5.784;2023-02-02T10:17:14;102300.69;;;12.73;58.50
48848;BME280;36611;51.638;5.784;2023-02-02T10:19:49;102302.34;;;12.76;58.06
48848;BME280;36611;51.638;5.784;2023-02-02T10:22:23;102307.75;;;12.76;58.37
48848;BME280;36611;51.638;5.784;2023-02-02T10:24:55;102306.69;;;12.78;58.27
48848;BME280;36611;51.638;5.784;2023-02-02T10:27:37;102306.78;;;12.77;58.14
48848;BME280;36611;51.638;5.784;2023-02-02T10:30:20;102309.47;;;12.77;58.22
48848;BME280;36611;51.638;5.784;2023-02-02T10:32:59;102311.22;;;12.78;58.29
48848;BME280;36611;51.638;5.784;2023-02-02T10:35:35;102310.34;;;12.77;58.05
48848;BME280;36611;51.638;5.784;2023-02-02T10:44:20;102316.59;;;12.78;58.14
48848;BME280;36611;51.638;5.784;2023-02-02T10:46:52;102312.19;;;12.77;58.57
48848;BME280;36611;51.638;5.784;2023-02-02T10:54:56;102310.25;;;12.79;58.23
48848;BME280;36611;51.638;5.784;2023-02-02T11:03:09;102324.94;;;12.89;58.01
48848;BME280;36611;51.638;5.784;2023-02-02T11:05:37;102332.09;;;12.90;58.01
48848;BME280;36611;51.638;5.784;2023-02-02T11:11:20;102334.78;;;12.90;58.07
48848;BME280;36611;51.638;5.784;2023-02-02T11:16:36;102325.75;;;12.91;57.89
48848;BME280;36611;51.638;5.784;2023-02-02T11:21:50;102314.94;;;12.91;57.85
48848;BME280;36611;51.638;5.784;2023-02-02T11:24:43;102321.22;;;12.91;57.82
48848;BME280;36611;51.638;5.784;2023-02-02T11:27:17;102323.81;;;12.93;57.80
48848;BME280;36611;51.638;5.784;2023-02-02T11:29:47;102323.81;;;12.93;57.83
48848;BME280;36611;51.638;5.784;2023-02-02T11:32:18;102321.13;;;12.93;57.80
48848;BME280;36611;51.638;5.784;2023-02-02T11:34:45;102322.94;;;12.92;57.95
48848;BME280;36611;51.638;5.784;2023-02-02T11:37:20;102326.50;;;12.93;57.77
48848;BME280;36611;51.638;5.784;2023-02-02T11:39:47;102326.44;;;12.94;57.45
48848;BME280;36611;51.638;5.784;2023-02-02T11:42:19;102312.84;;;12.96;57.71
48848;BME280;36611;51.638;5.784;2023-02-02T11:44:56;102313.72;;;12.96;57.78
48848;BME280;36611;51.638;5.784;2023-02-02T11:47:31;102311.81;;;12.98;57.72
48848;BME280;36611;51.638;5.784;2023-02-02T11:50:00;102309.91;;;13.00;57.47
48848;BME280;36611;51.638;5.784;2023-02-02T11:52:30;102299.09;;;13.00;57.38
48848;BME280;36611;51.638;5.784;2023-02-02T11:55:01;102305.38;;;13.01;57.53
48848;BME280;36611;51.638;5.784;2023-02-02T11:57:36;102309.03;;;13.00;57.62
48848;BME280;36611;51.638;5.784;2023-02-02T12:02:35;102308.94;;;13.01;57.70
48848;BME280;36611;51.638;5.784;2023-02-02T12:07:44;102314.25;;;13.03;57.35
48848;BME280;36611;51.638;5.784;2023-02-02T12:10:18;102312.41;;;13.03;57.45
48848;BME280;36611;51.638;5.784;2023-02-02T12:12:59;102308.84;;;13.03;57.32
48848;BME280;36611;51.638;5.784;2023-02-02T12:24:14;102317.13;;;13.00;57.54
48848;BME280;36611;51.638;5.784;2023-02-02T12:26:27;102311.72;;;13.00;57.48
48848;BME280;36611;51.638;5.784;2023-02-02T12:31:43;102315.56;;;12.96;57.37
48848;BME280;36611;51.638;5.784;2023-02-02T12:36:54;102314.78;;;12.94;57.25
48848;BME280;36611;51.638;5.784;2023-02-02T12:42:32;102298.78;;;12.91;57.33
48848;BME280;36611;51.638;5.784;2023-02-02T12:47:58;102292.59;;;12.89;57.26
48848;BME280;36611;51.638;5.784;2023-02-02T12:51:08;102290.78;;;12.89;57.23
48848;BME280;36611;51.638;5.784;2023-02-02T12:53:39;102284.41;;;12.90;57.02
48848;BME280;36611;51.638;5.784;2023-02-02T12:56:39;102289.72;;;12.92;57.19
48848;BME280;36611;51.638;5.784;2023-02-02T13:08:09;102290.59;;;12.92;57.25
48848;BME280;36611;51.638;5.784;2023-02-02T13:10:43;102295.97;;;12.92;57.30
48848;BME280;36611;51.638;5.784;2023-02-02T13:13:15;102290.69;;;12.91;57.24
48848;BME280;36611;51.638;5.784;2023-02-02T13:15:46;102301.66;;;12.88;57.42
48848;BME280;36611;51.638;5.784;2023-02-02T13:18:34;102298.94;;;12.88;57.64
48848;BME280;36611;51.638;5.784;2023-02-02T13:21:16;102294.44;;;12.88;57.43
48848;BME280;36611;51.638;5.784;2023-02-02T13:23:48;102289.91;;;12.89;57.62
48848;BME280;36611;51.638;5.784;2023-02-02T13:26:20;102296.34;;;12.86;57.64
48848;BME280;36611;51.638;5.784;2023-02-02T13:28:59;102292.88;;;12.84;57.97
48848;BME280;36611;51.638;5.784;2023-02-02T13:31:34;102292.00;;;12.84;57.97
48848;BME280;36611;51.638;5.784;2023-02-02T13:34:15;102299.13;;;12.85;57.93
48848;BME280;36611;51.638;5.784;2023-02-02T13:36:49;102291.13;;;12.83;58.14
48848;BME280;36611;51.638;5.784;2023-02-02T13:39:31;102300.16;;;12.82;58.17
48848;BME280;36611;51.638;5.784;2023-02-02T13:41:59;102286.69;;;12.82;58.47
48848;BME280;36611;51.638;5.784;2023-02-02T13:44:34;102289.47;;;12.81;58.67
48848;BME280;36611;51.638;5.784;2023-02-02T13:47:13;102284.94;;;12.81;58.88
48848;BME280;36611;51.638;5.784;2023-02-02T13:49:47;102288.53;;;12.82;58.68
48848;BME280;36611;51.638;5.784;2023-02-02T14:01:06;102298.59;;;12.78;59.02
48848;BME280;36611;51.638;5.784;2023-02-02T14:03:50;102298.59;;;12.78;58.80
48848;BME280;36611;51.638;5.784;2023-02-02T14:06:20;102301.22;;;12.80;59.17
48848;BME280;36611;51.638;5.784;2023-02-02T14:09:00;102306.59;;;12.80;58.72
48848;BME280;36611;51.638;5.784;2023-02-02T14:11:31;102297.75;;;12.78;58.96
48848;BME280;36611;51.638;5.784;2023-02-02T14:14:09;102309.47;;;12.77;59.10
48848;BME280;36611;51.638;5.784;2023-02-02T14:17:01;102314.78;;;12.78;59.37
48848;BME280;36611;51.638;5.784;2023-02-02T14:37:44;102320.25;;;12.77;59.32
48848;BME280;36611;51.638;5.784;2023-02-02T14:40:41;102329.31;;;12.76;59.49
48848;BME280;36611;51.638;5.784;2023-02-02T14:43:29;102327.47;;;12.76;59.42
48848;BME280;36611;51.638;5.784;2023-02-02T14:48:47;102334.78;;;12.74;59.66
48848;BME280;36611;51.638;5.784;2023-02-02T14:51:55;102334.97;;;12.71;59.96
48848;BME280;36611;51.638;5.784;2023-02-02T14:57:03;102342.34;;;12.67;59.63
48848;BME280;36611;51.638;5.784;2023-02-02T14:59:35;102351.38;;;12.66;59.80
48848;BME280;36611;51.638;5.784;2023-02-02T15:08:06;102347.09;;;12.62;60.17
48848;BME280;36611;51.638;5.784;2023-02-02T15:13:34;102343.94;;;12.54;60.02
48848;BME280;36611;51.638;5.784;2023-02-02T15:16:14;102354.81;;;12.53;60.42
48848;BME280;36611;51.638;5.784;2023-02-02T15:18:46;102353.06;;;12.52;60.20
48848;BME280;36611;51.638;5.784;2023-02-02T15:21:19;102358.47;;;12.52;60.54
48848;BME280;36611;51.638;5.784;2023-02-02T15:23:47;102353.16;;;12.50;60.48
48848;BME280;36611;51.638;5.784;2023-02-02T15:26:35;102355.06;;;12.48;60.84
48848;BME280;36611;51.638;5.784;2023-02-02T15:29:13;102358.56;;;12.50;60.80
48848;BME280;36611;51.638;5.784;2023-02-02T15:31:45;102355.00;;;12.50;60.93
48848;BME280;36611;51.638;5.784;2023-02-02T15:34:26;102355.00;;;12.50;61.03
48848;BME280;36611;51.638;5.784;2023-02-02T15:37:02;102357.78;;;12.48;60.86
48848;BME280;36611;51.638;5.784;2023-02-02T15:39:35;102348.91;;;12.46;61.08